Time;durP1;ratioP1;P1;durP2;ratioP2;P2;SDS_P1;SDS_P2;PMS_P1;PMS_P2;Temp;Humidity;BMP_temperature;BMP_pressure;BME280_temperature;BME280_humidity;BME280_pressure;Samples;Min_cycle;Max_cycle;Signal;HPM_P1;HPM_P2
2022/07/19 00:02:09;;;;;;;3.00;2.40;;;;;;;18.23;100.00;96858.53;5072883;27;102888;-63
2022/07/19 00:04:37;;;;;;;2.83;2.30;;;;;;;18.15;100.00;96861.06;5072560;27;101718;-62
2022/07/19 00:07:04;;;;;;;2.63;2.43;;;;;;;17.72;100.00;96856.66;5072736;27;101884;-62
2022/07/19 00:09:31;;;;;;;2.77;2.30;;;;;;;17.18;100.00;96861.41;5054489;27;103844;-62
2022/07/19 00:11:59;;;;;;;2.43;2.23;;;;;;;17.39;100.00;96862.88;5071853;27;103139;-63
2022/07/19 00:14:26;;;;;;;3.70;2.40;;;;;;;17.40;100.00;96862.59;5072779;27;102021;-62
2022/07/19 00:16:55;;;;;;;3.23;2.47;;;;;;;17.45;100.00;96853.69;5054152;27;105769;-62
2022/07/19 00:19:22;;;;;;;3.30;2.50;;;;;;;17.38;100.00;96859.38;5075259;27;102750;-62
2022/07/19 00:21:49;;;;;;;2.70;2.23;;;;;;;17.34;100.00;96855.59;5053732;27;105656;-62
2022/07/19 00:24:16;;;;;;;3.03;2.80;;;;;;;17.34;100.00;96849.44;5071678;27;102794;-62
2022/07/19 00:26:44;;;;;;;2.87;2.40;;;;;;;17.41;100.00;96852.63;5054306;27;102353;-62
2022/07/19 00:29:11;;;;;;;2.63;2.43;;;;;;;17.43;100.00;96845.91;5072781;27;102839;-62
2022/07/19 00:31:38;;;;;;;2.73;2.53;;;;;;;17.47;100.00;96848.81;5053404;27;106139;-62
2022/07/19 00:34:07;;;;;;;2.70;2.50;;;;;;;17.21;100.00;96844.69;5053688;27;102453;-62
2022/07/19 00:36:34;;;;;;;2.70;2.50;;;;;;;17.23;100.00;96843.34;5072074;27;102938;-62
2022/07/19 00:39:01;;;;;;;3.27;2.97;;;;;;;17.26;100.00;96844.66;5071873;27;102703;-62
2022/07/19 00:41:28;;;;;;;2.80;2.60;;;;;;;16.80;100.00;96843.38;5075815;27;102005;-62
2022/07/19 00:43:57;;;;;;;2.80;2.60;;;;;;;16.98;100.00;96848.09;5071492;27;103136;-62
2022/07/19 00:46:24;;;;;;;2.73;2.53;;;;;;;16.95;100.00;96849.47;5071449;27;101894;-62
2022/07/19 00:48:52;;;;;;;3.00;2.60;;;;;;;16.96;100.00;96848.38;5071449;27;102354;-62
2022/07/19 00:51:20;;;;;;;2.57;2.37;;;;;;;17.18;100.00;96846.09;5071278;27;102782;-62
2022/07/19 00:53:49;;;;;;;2.17;2.03;;;;;;;17.26;100.00;96841.97;5071946;27;101820;-62
2022/07/19 00:56:18;;;;;;;4.33;2.80;;;;;;;16.92;100.00;96838.47;5053846;27;105414;-62
2022/07/19 00:58:45;;;;;;;2.83;2.60;;;;;;;16.97;100.00;96838.44;5071190;27;102682;-62
2022/07/19 01:01:12;;;;;;;2.33;2.17;;;;;;;17.11;100.00;96832.16;5071687;27;101957;-62
2022/07/19 01:03:41;;;;;;;2.87;2.67;;;;;;;17.09;100.00;96837.00;5055905;27;105362;-62
2022/07/19 01:06:10;;;;;;;2.93;2.63;;;;;;;17.00;100.00;96837.91;5053555;27;101960;-62
2022/07/19 01:08:39;;;;;;;2.70;2.50;;;;;;;17.12;100.00;96846.41;5053057;27;105628;-62
2022/07/19 01:11:07;;;;;;;2.67;2.47;;;;;;;17.14;100.00;96838.84;5071599;27;102756;-62
2022/07/19 01:13:35;;;;;;;2.93;2.73;;;;;;;17.07;100.00;96843.75;5071120;27;101837;-62
2022/07/19 01:16:02;;;;;;;2.97;2.77;;;;;;;16.94;100.00;96833.63;5053922;27;102570;-62
2022/07/19 01:18:29;;;;;;;2.43;2.33;;;;;;;17.08;100.00;96843.47;5070855;27;102711;-62
2022/07/19 01:20:58;;;;;;;2.40;2.20;;;;;;;17.31;100.00;96833.88;5071775;27;101853;-62
2022/07/19 01:23:27;;;;;;;2.40;2.20;;;;;;;17.28;100.00;96837.91;5071709;27;102966;-62
2022/07/19 01:25:54;;;;;;;2.30;2.20;;;;;;;17.32;100.00;96828.22;5074322;27;103100;-62
2022/07/19 01:28:21;;;;;;;3.17;2.70;;;;;;;17.18;100.00;96834.53;5053024;27;105289;-62
2022/07/19 01:30:50;;;;;;;3.30;2.60;;;;;;;16.83;100.00;96832.88;5052457;27;105808;-62
2022/07/19 01:33:17;;;;;;;3.73;2.57;;;;;;;16.62;100.00;96831.41;5071548;27;103922;-62
2022/07/19 01:35:45;;;;;;;2.73;2.50;;;;;;;16.84;100.00;96837.16;5070739;27;102430;-62
2022/07/19 01:38:12;;;;;;;2.53;2.33;;;;;;;16.95;100.00;96840.63;5071020;27;103374;-62
2022/07/19 01:40:41;;;;;;;2.83;2.63;;;;;;;16.88;100.00;96840.09;5052645;27;101979;-62
2022/07/19 01:43:09;;;;;;;3.20;3.00;;;;;;;16.75;100.00;96841.53;5071184;27;102653;-62
2022/07/19 01:45:36;;;;;;;2.73;2.53;;;;;;;16.59;100.00;96847.25;5074253;27;103340;-62
2022/07/19 01:48:04;;;;;;;2.90;2.60;;;;;;;16.35;100.00;96851.66;5052695;27;104193;-62
2022/07/19 01:50:31;;;;;;;2.87;2.60;;;;;;;16.87;100.00;96854.63;5070751;27;102682;-62
2022/07/19 01:52:58;;;;;;;2.50;2.30;;;;;;;16.91;100.00;96848.44;5071137;27;102169;-62
2022/07/19 01:55:25;;;;;;;3.23;2.80;;;;;;;16.57;100.00;96855.59;5052693;27;105912;-62
2022/07/19 01:57:54;;;;;;;3.10;2.80;;;;;;;16.42;100.00;96852.19;5070392;27;102514;-62
2022/07/19 02:00:21;;;;;;;2.87;2.57;;;;;;;16.18;100.00;96853.88;5070661;27;102189;-62
2022/07/19 02:02:48;;;;;;;2.50;2.30;;;;;;;16.49;100.00;96860.75;5070439;27;102850;-62
2022/07/19 02:05:15;;;;;;;2.73;2.40;;;;;;;16.58;100.00;96861.78;5070405;27;102590;-62
2022/07/19 02:07:43;;;;;;;3.00;2.77;;;;;;;16.38;100.00;96861.84;5074725;27;101757;-62
2022/07/19 02:10:10;;;;;;;2.60;2.40;;;;;;;16.25;100.00;96851.69;5069859;27;103037;-62
2022/07/19 02:12:38;;;;;;;2.63;2.40;;;;;;;16.26;100.00;96848.75;5051656;27;102296;-62
2022/07/19 02:15:09;;;;;;;2.53;2.33;;;;;;;16.57;100.00;96849.44;5070988;27;102637;-62
2022/07/19 02:17:36;;;;;;;2.30;2.20;;;;;;;16.76;100.00;96850.38;5051470;27;105464;-62
2022/07/19 02:20:05;;;;;;;3.20;3.00;;;;;;;16.69;100.00;96847.22;5052281;27;102120;-62
2022/07/19 02:22:32;;;;;;;2.83;2.63;;;;;;;16.63;100.00;96843.75;5052575;27;105056;-62
2022/07/19 02:25:00;;;;;;;2.40;2.20;;;;;;;16.61;100.00;96840.53;5050537;27;105711;-62
2022/07/19 02:27:28;;;;;;;2.63;2.47;;;;;;;16.18;100.00;96837.78;5070841;27;101707;-62
2022/07/19 02:29:55;;;;;;;2.40;2.30;;;;;;;16.15;100.00;96843.69;5055034;27;105808;-62
2022/07/19 02:32:23;;;;;;;3.93;2.40;;;;;;;16.45;100.00;96847.06;5052015;27;102112;-62
2022/07/19 02:34:51;;;;;;;2.70;2.50;;;;;;;16.46;100.00;96845.97;5070407;27;102902;-62
2022/07/19 02:37:18;;;;;;;2.40;2.30;;;;;;;16.51;100.00;96840.59;5051669;27;103760;-62
2022/07/19 02:39:45;;;;;;;2.63;2.30;;;;;;;16.49;100.00;96845.44;5052204;27;102166;-62
2022/07/19 02:42:12;;;;;;;2.57;2.37;;;;;;;16.40;100.00;96843.63;5069889;27;103760;-62
2022/07/19 02:44:39;;;;;;;2.57;2.37;;;;;;;16.33;100.00;96837.69;5069983;27;102735;-62
2022/07/19 02:47:07;;;;;;;2.97;2.77;;;;;;;16.40;100.00;96840.94;5070782;27;101861;-62
2022/07/19 02:49:36;;;;;;;4.50;3.07;;;;;;;16.20;100.00;96843.66;5051736;27;107602;-62
2022/07/19 02:52:03;;;;;;;2.87;2.67;;;;;;;15.84;100.00;96834.94;5073270;27;102925;-62
2022/07/19 02:54:30;;;;;;;3.33;2.17;;;;;;;16.03;100.00;96835.16;5066865;27;102378;-62
2022/07/19 02:56:57;;;;;;;2.70;2.50;;;;;;;15.85;100.00;96827.66;5051377;27;105451;-62
2022/07/19 02:59:25;;;;;;;2.43;2.33;;;;;;;15.67;100.00;96829.06;5070555;27;101799;-62
2022/07/19 03:01:51;;;;;;;4.67;2.50;;;;;;;15.84;100.00;96828.75;5070086;27;102345;-62
2022/07/19 03:04:19;;;;;;;3.20;2.90;;;;;;;15.72;100.00;96817.53;5041707;27;105466;-62
2022/07/19 03:06:48;;;;;;;2.70;2.50;;;;;;;15.68;100.00;96819.13;5070076;27;101814;-62
2022/07/19 03:09:15;;;;;;;2.83;2.60;;;;;;;15.64;100.00;96826.13;5070201;27;102536;-62
2022/07/19 03:11:42;;;;;;;3.30;2.40;;;;;;;15.27;100.00;96825.59;5072604;27;103206;-62
2022/07/19 03:14:09;;;;;;;2.93;2.73;;;;;;;15.14;100.00;96823.44;5058077;27;102022;-62
2022/07/19 03:16:36;;;;;;;3.20;2.90;;;;;;;15.20;100.00;96823.19;5072713;27;103125;-62
2022/07/19 03:19:03;;;;;;;2.40;2.30;;;;;;;15.42;100.00;96817.59;5055430;27;103754;-62
2022/07/19 03:21:31;;;;;;;2.70;2.50;;;;;;;15.55;100.00;96820.53;5055163;27;105260;-62
2022/07/19 03:24:00;;;;;;;3.00;2.80;;;;;;;15.40;100.00;96819.72;5072620;27;104518;-62
2022/07/19 03:26:27;;;;;;;3.50;2.97;;;;;;;15.18;100.00;96821.84;5073811;27;101830;-62
2022/07/19 03:28:54;;;;;;;3.10;2.50;;;;;;;15.40;100.00;96817.03;5073362;27;102412;-62
2022/07/19 03:31:21;;;;;;;2.40;2.30;;;;;;;15.25;100.00;96808.97;5072904;27;102714;-62
2022/07/19 03:33:48;;;;;;;6.33;3.20;;;;;;;15.25;100.00;96812.47;5073450;27;102358;-62
2022/07/19 03:36:15;;;;;;;3.30;2.90;;;;;;;15.41;100.00;96814.09;5057626;27;105772;-62
2022/07/19 03:38:42;;;;;;;2.80;2.60;;;;;;;15.09;100.00;96810.09;5054852;27;101914;-62
2022/07/19 03:41:11;;;;;;;4.30;2.50;;;;;;;15.25;100.00;96808.97;5073062;27;102934;-62
2022/07/19 03:43:38;;;;;;;3.00;2.80;;;;;;;15.05;100.00;96820.50;5071945;27;102622;-62
2022/07/19 03:46:06;;;;;;;4.60;2.70;;;;;;;15.41;100.00;96818.63;5073555;27;101837;-62
2022/07/19 03:48:33;;;;;;;2.60;2.40;;;;;;;15.52;100.00;96817.56;5054798;27;103719;-62
2022/07/19 03:50:59;;;;;;;3.70;3.00;;;;;;;15.44;100.00;96815.44;5072471;27;103280;-62
2022/07/19 03:53:27;;;;;;;3.93;2.90;;;;;;;15.60;100.00;96822.38;5072834;27;102399;-62
2022/07/19 03:55:54;;;;;;;2.90;2.70;;;;;;;15.66;100.00;96818.59;5076188;27;102883;-62
2022/07/19 03:58:23;;;;;;;3.30;3.00;;;;;;;15.70;100.00;96817.00;5054499;27;101964;-62
2022/07/19 04:00:50;;;;;;;4.03;3.57;;;;;;;15.91;100.00;96823.91;5054968;27;106611;-62
2022/07/19 04:03:17;;;;;;;3.20;3.00;;;;;;;15.91;100.00;96821.25;5072810;27;102700;-62
2022/07/19 04:05:46;;;;;;;3.47;3.23;;;;;;;15.87;100.00;96828.22;5073250;27;101905;-62
2022/07/19 04:08:14;;;;;;;3.30;3.00;;;;;;;15.96;100.00;96827.38;5054936;27;105439;-62
2022/07/19 04:10:41;;;;;;;3.43;3.10;;;;;;;15.94;100.00;96823.34;5052371;27;103216;-62
2022/07/19 04:13:08;;;;;;;3.10;2.90;;;;;;;16.08;100.00;96827.09;5052346;27;101849;-62
2022/07/19 04:15:37;;;;;;;3.00;2.80;;;;;;;16.11;100.00;96824.66;5034584;27;106894;-62
2022/07/19 04:18:04;;;;;;;3.70;3.20;;;;;;;16.12;100.00;96828.13;5055978;27;102984;-62
2022/07/19 04:21:01;;;;;;;2.87;2.67;;;;;;;16.54;100.00;96839.25;5054964;27;102282;-61
2022/07/19 04:23:28;;;;;;;3.77;3.07;;;;;;;16.39;100.00;96825.88;5071711;27;102960;-62
2022/07/19 04:26:01;;;;;;;3.10;2.90;;;;;;;16.38;100.00;96824.25;5052606;27;101845;-62
2022/07/19 04:28:28;;;;;;;3.40;3.10;;;;;;;16.36;100.00;96829.88;5052817;27;102991;-62
2022/07/19 04:30:57;;;;;;;3.20;2.90;;;;;;;16.53;100.00;96833.09;5052072;27;102921;-62
2022/07/19 04:33:24;;;;;;;3.17;2.97;;;;;;;16.60;100.00;96830.88;5051579;27;101902;-62
2022/07/19 04:35:51;;;;;;;2.97;2.70;;;;;;;16.74;100.00;96828.38;5033897;27;105173;-62
2022/07/19 04:38:18;;;;;;;3.23;3.03;;;;;;;16.94;100.00;96829.03;5067180;27;105856;-62
2022/07/19 04:40:46;;;;;;;3.00;2.80;;;;;;;16.92;100.00;96833.09;5037181;27;102194;-62
2022/07/19 04:43:13;;;;;;;4.60;3.30;;;;;;;16.69;100.00;96825.72;5032755;27;105709;-62
2022/07/19 04:45:41;;;;;;;4.67;3.33;;;;;;;17.05;100.00;96824.44;5033626;27;102037;-62
2022/07/19 04:48:10;;;;;;;5.17;3.30;;;;;;;17.44;100.00;96827.88;5052097;27;102550;-62
2022/07/19 04:50:38;;;;;;;3.27;2.97;;;;;;;17.68;100.00;96826.03;5032868;27;105697;-62
2022/07/19 04:53:06;;;;;;;4.87;3.60;;;;;;;17.72;100.00;96822.47;5052115;27;101762;-62
2022/07/19 04:55:33;;;;;;;3.93;3.50;;;;;;;17.73;100.00;96826.81;5051687;27;102413;-62
2022/07/19 04:58:00;;;;;;;3.20;3.00;;;;;;;17.83;100.00;96831.25;5051342;27;102591;-62
2022/07/19 05:00:28;;;;;;;3.53;3.23;;;;;;;17.85;100.00;96829.91;5051896;27;101848;-62
2022/07/19 05:02:55;;;;;;;3.03;2.83;;;;;;;17.93;100.00;96823.09;5054737;27;102379;-62
2022/07/19 05:05:24;;;;;;;3.13;2.90;;;;;;;18.10;100.00;96821.53;5051586;27;101773;-62
2022/07/19 05:07:51;;;;;;;3.20;3.00;;;;;;;18.18;100.00;96828.16;5033545;27;105378;-62
2022/07/19 05:10:18;;;;;;;3.80;2.93;;;;;;;18.33;100.00;96830.72;5032844;27;105283;-62
2022/07/19 05:12:45;;;;;;;3.50;3.20;;;;;;;18.43;100.00;96827.91;5032512;27;102028;-62
2022/07/19 05:15:13;;;;;;;3.57;3.27;;;;;;;18.24;100.00;96833.22;5051694;27;102504;-62
2022/07/19 05:17:40;;;;;;;4.07;3.30;;;;;;;18.15;100.00;96834.13;5049645;27;106636;-62
2022/07/19 05:20:08;;;;;;;3.60;3.30;;;;;;;17.95;100.00;96834.34;5051385;27;101820;-62
2022/07/19 05:22:37;;;;;;;3.50;3.23;;;;;;;17.91;100.00;96828.75;5051700;27;102793;-62
2022/07/19 05:25:04;;;;;;;4.00;3.70;;;;;;;18.08;100.00;96817.50;5054224;27;102600;-62
2022/07/19 05:27:32;;;;;;;3.63;3.30;;;;;;;18.32;100.00;96819.13;5033122;27;105676;-62
2022/07/19 05:29:59;;;;;;;3.40;3.10;;;;;;;18.47;100.00;96818.16;5032468;27;105586;-62
2022/07/19 05:32:26;;;;;;;3.20;2.90;;;;;;;18.67;100.00;96820.56;5066669;27;101923;-62
2022/07/19 05:34:53;;;;;;;3.70;3.20;;;;;;;18.79;100.00;96813.66;5051099;27;102301;-62
2022/07/19 05:37:20;;;;;;;5.07;3.40;;;;;;;18.97;100.00;96826.31;5050719;27;102527;-62
2022/07/19 05:39:48;;;;;;;3.50;3.20;;;;;;;19.12;100.00;96817.22;5051224;27;101836;-62
2022/07/19 05:42:15;;;;;;;4.03;3.73;;;;;;;19.16;100.00;96829.00;5050918;27;102309;-62
2022/07/19 05:44:43;;;;;;;3.63;3.33;;;;;;;19.38;100.00;96826.50;5032414;27;105420;-62
2022/07/19 05:47:10;;;;;;;4.20;3.30;;;;;;;19.55;100.00;96826.75;5054779;27;101851;-62
2022/07/19 05:49:37;;;;;;;3.83;3.10;;;;;;;19.65;100.00;96823.88;5050384;27;103180;-63
2022/07/19 05:52:04;;;;;;;5.10;3.00;;;;;;;19.69;100.00;96814.09;5032640;27;101926;-62
2022/07/19 05:54:32;;;;;;;3.47;2.90;;;;;;;19.82;100.00;96807.91;5051022;27;102421;-62
2022/07/19 05:57:00;;;;;;;3.90;3.47;;;;;;;19.99;100.00;96816.25;5050213;27;104668;-62
2022/07/19 05:59:28;;;;;;;4.33;3.17;;;;;;;20.16;100.00;96805.69;5032755;27;102150;-62
2022/07/19 06:01:55;;;;;;;4.10;3.70;;;;;;;20.27;100.00;96807.06;5050713;27;102980;-62
2022/07/19 06:04:22;;;;;;;3.67;3.37;;;;;;;20.45;100.00;96811.53;5050452;27;102636;-62
2022/07/19 06:06:50;;;;;;;4.00;2.87;;;;;;;20.54;100.00;96807.81;5069902;27;101929;-62
2022/07/19 06:09:17;;;;;;;5.10;3.33;;;;;;;20.44;100.00;96809.97;5050270;27;102607;-62
2022/07/19 06:11:44;;;;;;;3.10;2.80;;;;;;;20.60;100.00;96809.31;5032474;27;101973;-62
2022/07/19 06:14:12;;;;;;;3.20;3.00;;;;;;;20.16;100.00;96816.47;5050330;27;102423;-62
2022/07/19 06:16:40;;;;;;;3.97;3.10;;;;;;;20.08;100.00;96819.88;5050145;27;103247;-62
2022/07/19 06:19:08;;;;;;;3.63;3.00;;;;;;;20.12;100.00;96818.16;5050701;27;102149;-62
2022/07/19 06:21:35;;;;;;;3.80;3.20;;;;;;;20.00;100.00;96823.25;5050702;27;102460;-62
2022/07/19 06:24:02;;;;;;;8.07;3.60;;;;;;;20.27;100.00;96821.34;5049867;27;103225;-62
2022/07/19 06:26:30;;;;;;;6.67;3.50;;;;;;;20.12;100.00;96816.25;5050699;27;101811;-62
2022/07/19 06:28:57;;;;;;;5.63;3.47;;;;;;;20.16;100.00;96819.97;5053468;27;102842;-62
2022/07/19 06:31:26;;;;;;;8.67;3.33;;;;;;;20.49;100.00;96826.84;5050283;27;101857;-62
2022/07/19 06:33:53;;;;;;;6.97;3.00;;;;;;;20.66;100.00;96816.19;5050076;27;102441;-62
2022/07/19 06:36:21;;;;;;;5.60;3.10;;;;;;;21.06;100.00;96815.34;5049771;27;104389;-62
2022/07/19 06:38:49;;;;;;;5.83;3.27;;;;;;;21.26;100.00;96808.66;5032007;27;101901;-62
2022/07/19 06:41:17;;;;;;;4.03;2.90;;;;;;;21.26;100.00;96816.75;5032165;27;105755;-62
2022/07/19 06:43:45;;;;;;;5.63;2.90;;;;;;;21.34;100.00;96805.19;5049384;27;102853;-62
2022/07/19 06:46:12;;;;;;;4.97;2.70;;;;;;;21.36;100.00;96805.69;5049478;27;101994;-62
2022/07/19 06:48:41;;;;;;;2.93;2.40;;;;;;;21.48;100.00;96805.94;5050523;27;102432;-62
2022/07/19 06:51:09;;;;;;;4.67;2.33;;;;;;;21.72;100.00;96812.63;5035026;27;105427;-62
2022/07/19 06:53:36;;;;;;;3.77;2.43;;;;;;;21.89;100.00;96806.47;5031813;27;105186;-62
2022/07/19 06:56:04;;;;;;;5.10;2.83;;;;;;;21.44;100.00;96805.75;5065046;27;105773;-62
2022/07/19 06:58:31;;;;;;;4.87;3.20;;;;;;;21.30;100.00;96804.22;5032006;27;102017;-62
2022/07/19 07:01:00;;;;;;;3.40;2.97;;;;;;;21.63;100.00;96797.44;5050261;27;102507;-62
2022/07/19 07:03:27;;;;;;;2.87;2.60;;;;;;;21.67;100.00;96798.38;5049445;27;103176;-62
2022/07/19 07:05:55;;;;;;;2.97;2.63;;;;;;;21.81;100.00;96802.66;5031729;27;102019;-62
2022/07/19 07:08:23;;;;;;;3.10;2.57;;;;;;;22.15;100.00;96793.84;5050272;27;102357;-62
2022/07/19 07:10:50;;;;;;;2.77;2.30;;;;;;;22.38;100.00;96798.88;5049276;27;102575;-63
2022/07/19 07:13:17;;;;;;;3.70;2.50;;;;;;;22.82;100.00;96800.56;5053313;27;101879;-62
2022/07/19 07:15:45;;;;;;;2.47;2.20;;;;;;;22.92;100.00;96800.25;5065096;27;105883;-62
2022/07/19 07:18:12;;;;;;;3.07;2.40;;;;;;;22.92;100.00;96794.81;5050195;27;101776;-62
2022/07/19 07:20:39;;;;;;;3.63;2.27;;;;;;;23.02;100.00;96797.22;5065068;27;105390;-62
2022/07/19 07:23:08;;;;;;;3.03;2.03;;;;;;;22.99;100.00;96790.53;5049402;27;102778;-62
2022/07/19 07:25:35;;;;;;;2.40;2.20;;;;;;;23.40;100.00;96798.19;5065452;27;102140;-62
2022/07/19 07:28:03;;;;;;;3.50;2.20;;;;;;;23.34;100.00;96794.84;5065265;27;105634;-62
2022/07/19 07:30:30;;;;;;;3.90;2.07;;;;;;;23.66;100.00;96785.38;5030791;27;105430;-62
2022/07/19 07:32:57;;;;;;;3.23;2.20;;;;;;;23.81;100.00;96788.34;5049618;27;101879;-62
2022/07/19 07:35:24;;;;;;;2.20;1.77;;;;;;;23.97;100.00;96788.66;5034336;27;103917;-62
2022/07/19 07:37:51;;;;;;;2.77;2.43;;;;;;;24.16;100.00;96784.41;5031432;27;101946;-62
2022/07/19 07:40:20;;;;;;;3.07;1.90;;;;;;;24.23;100.00;96789.31;5031237;27;105701;-62
2022/07/19 07:42:47;;;;;;;6.33;2.00;;;;;;;24.21;100.00;96784.25;5048699;27;103094;-62
2022/07/19 07:45:15;;;;;;;5.23;2.40;;;;;;;24.46;100.00;96782.50;5065340;27;101981;-62
2022/07/19 07:47:42;;;;;;;4.53;1.80;;;;;;;24.61;100.00;96784.66;5049657;27;102390;-62
2022/07/19 07:50:09;;;;;;;3.07;2.00;;;;;;;24.64;100.00;96784.78;5030444;27;104140;-62
2022/07/19 07:52:37;;;;;;;4.63;2.30;;;;;;;24.90;100.00;96779.97;5064915;27;102188;-62
2022/07/19 07:55:05;;;;;;;2.37;1.70;;;;;;;24.68;100.00;96782.25;5031120;27;105181;-63
2022/07/19 07:57:34;;;;;;;4.10;2.20;;;;;;;25.06;100.00;96780.97;5036606;27;101983;-63
2022/07/19 08:00:01;;;;;;;2.67;2.30;;;;;;;24.85;100.00;96773.94;5068453;27;105209;-63
2022/07/19 08:02:40;;;;;;;3.07;2.30;;;;;;;25.08;100.00;96775.19;5049002;27;102383;-63
2022/07/19 08:05:09;;;;;;;2.83;1.97;;;;;;;25.03;100.00;96773.47;5034351;27;102088;-63
2022/07/19 08:07:35;;;;;;;2.73;2.10;;;;;;;25.44;100.00;96776.16;5053023;27;102365;-64
2022/07/19 08:10:03;;;;;;;2.53;1.93;;;;;;;25.70;100.00;96768.53;5052234;27;103111;-63
2022/07/19 08:12:30;;;;;;;2.00;1.80;;;;;;;25.31;100.00;96765.56;5052051;27;101951;-64
2022/07/19 08:14:59;;;;;;;2.50;1.80;;;;;;;25.81;100.00;96763.44;5052756;27;102266;-63
2022/07/19 08:17:26;;;;;;;2.37;2.17;;;;;;;25.71;100.00;96758.44;5071156;27;105329;-63
2022/07/19 08:19:53;;;;;;;3.50;2.27;;;;;;;26.01;100.00;96751.69;5068162;27;105442;-63
2022/07/19 08:22:20;;;;;;;2.27;2.00;;;;;;;26.32;100.00;96757.38;5067563;27;105021;-63
2022/07/19 08:24:47;;;;;;;2.07;1.97;;;;;;;26.47;100.00;96752.00;5052438;27;101982;-63
2022/07/19 08:27:15;;;;;;;3.00;1.87;;;;;;;26.37;100.00;96752.47;5052434;27;101741;-64
2022/07/19 08:29:42;;;;;;;1.83;1.63;;;;;;;26.77;97.97;96761.56;5051969;27;103161;-64
2022/07/19 08:32:10;;;;;;;2.47;1.63;;;;;;;27.02;88.49;96762.28;5052433;27;101830;-63
2022/07/19 08:34:38;;;;;;;2.87;1.70;;;;;;;26.76;83.76;96764.63;5052190;27;102360;-63
2022/07/19 08:37:05;;;;;;;1.83;1.73;;;;;;;27.19;88.36;96757.34;5051603;27;103471;-64
2022/07/19 08:39:32;;;;;;;1.90;1.80;;;;;;;27.26;88.97;96757.56;5055960;27;102063;-64
2022/07/19 08:41:59;;;;;;;2.00;1.90;;;;;;;27.58;85.81;96755.69;5051669;27;102802;-63
2022/07/19 08:44:27;;;;;;;1.87;1.70;;;;;;;27.50;84.03;96760.19;5033957;27;102053;-65
2022/07/19 08:46:55;;;;;;;4.07;2.03;;;;;;;27.27;79.51;96750.97;5052105;27;102887;-64
2022/07/19 08:49:24;;;;;;;1.70;1.60;;;;;;;27.65;90.88;96756.69;5051425;27;102562;-64
2022/07/19 08:51:53;;;;;;;1.80;1.70;;;;;;;28.01;86.09;96750.22;5033801;27;101891;-64
2022/07/19 08:54:20;;;;;;;1.70;1.60;;;;;;;28.33;82.71;96757.25;5067814;27;105069;-65
2022/07/19 08:59:33;;;;;;;2.87;1.93;;;;;;;27.65;74.80;96753.16;5033609;27;102027;-67
2022/07/19 09:02:00;;;;;;;1.73;1.63;;;;;;;27.81;79.46;96754.81;5054558;27;102423;-63
2022/07/19 09:04:30;;;;;;;1.70;1.60;;;;;;;27.78;79.34;96750.03;5067343;27;101955;-62
2022/07/19 09:06:59;;;;;;;2.43;1.80;;;;;;;27.81;78.61;96752.06;5051868;27;103966;-62
2022/07/19 09:09:29;;;;;;;1.77;1.50;;;;;;;28.19;73.04;96752.25;5050190;27;102704;-62
2022/07/19 09:11:57;;;;;;;3.70;1.80;;;;;;;27.74;73.29;96754.56;5051596;27;101903;-64
2022/07/19 09:14:27;;;;;;;1.50;1.40;;;;;;;28.34;80.25;96754.16;5051345;27;102523;-62
2022/07/19 09:17:00;;;;;;;1.60;1.50;;;;;;;28.83;71.37;96746.31;5051109;27;102614;-62
2022/07/19 09:19:32;;;;;;;2.97;1.63;;;;;;;28.81;64.23;96751.34;5033270;27;101940;-62
2022/07/19 09:22:02;;;;;;;1.63;1.30;;;;;;;28.98;63.04;96745.50;5066917;27;104055;-62
2022/07/19 09:24:31;;;;;;;2.07;1.47;;;;;;;29.11;56.58;96736.78;5036717;27;102652;-61
2022/07/19 09:27:03;;;;;;;1.85;1.30;;;;;;;29.18;56.87;96741.59;5052318;27;101671;-61
2022/07/19 09:29:32;;;;;;;1.52;1.40;;;;;;;29.27;55.77;96739.44;5051080;27;102590;-61
2022/07/19 09:32:02;;;;;;;1.65;1.30;;;;;;;29.49;56.77;96741.44;5051331;27;101837;-61
2022/07/19 09:34:31;;;;;;;1.52;1.42;;;;;;;29.71;51.77;96737.97;5032712;27;103638;-61
2022/07/19 09:37:09;;;;;;;1.77;1.27;;;;;;;29.78;50.53;96738.91;5032573;27;103739;-61
2022/07/19 09:39:39;;;;;;;1.60;1.50;;;;;;;29.91;51.39;96737.53;5033156;27;101926;-61
2022/07/19 09:42:06;;;;;;;1.85;1.48;;;;;;;30.17;52.79;96745.06;5051019;27;101931;-61
2022/07/19 09:44:33;;;;;;;1.60;1.50;;;;;;;30.39;52.60;96738.75;5065900;27;104534;-61
2022/07/19 09:47:00;;;;;;;2.33;1.73;;;;;;;30.64;50.20;96737.97;5036462;27;102021;-61
2022/07/19 09:49:30;;;;;;;1.98;1.50;;;;;;;30.61;51.60;96735.16;5050798;27;102549;-61
2022/07/19 09:51:58;;;;;;;2.45;1.60;;;;;;;30.71;47.34;96732.63;5051257;27;101709;-61
2022/07/19 09:54:28;;;;;;;2.30;1.70;;;;;;;30.87;48.20;96735.16;5051060;27;102291;-61
2022/07/19 09:56:57;;;;;;;1.52;1.40;;;;;;;30.80;47.41;96724.91;5050190;27;103815;-61
2022/07/19 09:59:26;;;;;;;2.58;1.60;;;;;;;31.04;47.75;96726.38;5032848;27;102286;-61
2022/07/19 10:01:55;;;;;;;2.22;1.40;;;;;;;30.93;49.13;96725.44;5050702;27;102599;-61
2022/07/19 10:04:24;;;;;;;1.95;1.50;;;;;;;31.23;49.90;96731.75;5050224;27;103794;-61
2022/07/19 10:06:54;;;;;;;1.80;1.45;;;;;;;31.28;46.40;96725.94;5054262;27;101829;-61
2022/07/19 10:09:23;;;;;;;2.92;1.50;;;;;;;31.53;43.10;96724.22;5050596;27;102864;-61
2022/07/19 10:11:53;;;;;;;2.72;1.30;;;;;;;31.51;44.18;96732.06;5050762;27;101822;-61
2022/07/19 10:14:20;;;;;;;1.60;1.50;;;;;;;31.70;41.54;96729.13;5050199;27;102295;-61
2022/07/19 10:16:59;;;;;;;1.55;1.33;;;;;;;31.57;41.28;96730.56;5065778;27;106294;-61
2022/07/19 10:19:34;;;;;;;4.05;1.40;;;;;;;31.78;43.42;96719.81;5050059;27;101696;-61
2022/07/19 10:22:03;;;;;;;1.60;1.50;;;;;;;31.91;43.10;96712.84;5050897;27;102350;-61
2022/07/19 10:24:45;;;;;;;2.00;1.40;;;;;;;31.80;43.70;96721.03;5031584;27;105480;-61
2022/07/19 10:27:13;;;;;;;1.70;1.60;;;;;;;32.10;44.19;96707.91;5063026;27;101774;-61
2022/07/19 10:29:41;;;;;;;1.35;1.25;;;;;;;31.75;45.73;96715.06;5074047;27;102382;-61
2022/07/19 10:32:10;;;;;;;3.30;1.70;;;;;;;31.96;42.44;96702.31;5086534;27;102069;-61
2022/07/19 10:34:38;;;;;;;3.50;1.50;;;;;;;32.13;43.05;96706.34;5052433;27;105222;-61
2022/07/19 10:37:07;;;;;;;2.20;1.30;;;;;;;32.41;39.94;96704.63;5069971;27;102490;-61
2022/07/19 10:39:35;;;;;;;2.55;1.40;;;;;;;32.37;40.45;96703.81;5052602;27;101853;-61
2022/07/19 10:42:21;;;;;;;1.70;1.60;;;;;;;32.48;41.36;96706.66;5070642;27;102499;-61
2022/07/19 10:45:14;;;;;;;2.00;1.50;;;;;;;32.57;38.86;96705.13;5070281;27;102803;-61
2022/07/19 10:48:11;;;;;;;1.50;1.40;;;;;;;32.65;39.62;96700.47;5070456;27;101793;-61
2022/07/19 10:50:58;;;;;;;2.70;1.58;;;;;;;32.60;39.70;96690.63;5052220;27;105368;-61
2022/07/19 10:54:02;;;;;;;1.52;1.40;;;;;;;32.80;40.04;96688.38;5073380;27;104486;-61
2022/07/19 10:56:57;;;;;;;1.60;1.40;;;;;;;32.74;36.83;96690.69;5070525;27;102366;-61
2022/07/19 10:59:43;;;;;;;1.60;1.10;;;;;;;33.10;36.89;96692.47;5069939;27;102868;-61
2022/07/19 11:02:24;;;;;;;1.40;1.30;;;;;;;33.12;37.75;96692.09;5051983;27;101886;-61
2022/07/19 11:04:51;;;;;;;1.85;1.40;;;;;;;33.35;37.59;96690.59;5052007;27;105279;-61
2022/07/19 11:07:21;;;;;;;1.90;1.23;;;;;;;33.45;37.63;96681.56;5051311;27;105985;-61
2022/07/19 11:09:53;;;;;;;1.48;1.30;;;;;;;33.53;37.44;96682.38;5070673;27;101687;-61
2022/07/19 11:12:36;;;;;;;1.52;1.40;;;;;;;33.79;36.67;96676.53;5069836;27;104077;-61
2022/07/19 11:15:10;;;;;;;4.82;1.48;;;;;;;33.58;35.16;96668.19;5067978;27;102467;-61
2022/07/19 11:17:37;;;;;;;1.50;1.40;;;;;;;33.43;36.55;96661.88;5055425;27;101781;-61
2022/07/19 11:20:08;;;;;;;1.50;1.45;;;;;;;33.54;36.38;96668.19;5069777;27;103087;-61
2022/07/19 11:22:37;;;;;;;2.20;1.40;;;;;;;33.73;36.65;96659.53;5070432;27;101691;-61
2022/07/19 11:25:08;;;;;;;2.85;1.27;;;;;;;34.07;35.97;96658.03;5051782;27;104035;-61
2022/07/19 11:27:36;;;;;;;1.98;1.30;;;;;;;34.33;36.19;96654.84;5050793;27;105781;-61
2022/07/19 11:30:07;;;;;;;1.88;1.30;;;;;;;33.82;35.70;96645.38;5069903;27;101863;-61